sensor_id;sensor_type;location;lat;lon;timestamp;temperature;humidity
13521;DHT22;6832;51.186;3.236;2023-06-19T00:02:25;29.90;52.00
13521;DHT22;6832;51.186;3.236;2023-06-19T00:04:52;29.90;52.00
13521;DHT22;6832;51.186;3.236;2023-06-19T00:07:21;29.90;52.00
13521;DHT22;6832;51.186;3.236;2023-06-19T00:09:47;29.80;52.00
13521;DHT22;6832;51.186;3.236;2023-06-19T00:12:14;29.80;52.00
13521;DHT22;6832;51.186;3.236;2023-06-19T00:14:41;29.80;52.00
13521;DHT22;6832;51.186;3.236;2023-06-19T00:17:08;29.80;52.00
13521;DHT22;6832;51.186;3.236;2023-06-19T00:19:35;29.80;52.00
13521;DHT22;6832;51.186;3.236;2023-06-19T00:22:03;29.80;52.00
13521;DHT22;6832;51.186;3.236;2023-06-19T00:24:31;29.70;52.00
13521;DHT22;6832;51.186;3.236;2023-06-19T00:26:58;29.70;52.00
13521;DHT22;6832;51.186;3.236;2023-06-19T00:29:28;29.70;52.00
13521;DHT22;6832;51.186;3.236;2023-06-19T00:31:55;29.70;52.10
13521;DHT22;6832;51.186;3.236;2023-06-19T00:34:21;29.70;52.10
13521;DHT22;6832;51.186;3.236;2023-06-19T00:36:49;29.70;52.10
13521;DHT22;6832;51.186;3.236;2023-06-19T00:39:16;29.70;52.20
13521;DHT22;6832;51.186;3.236;2023-06-19T00:41:45;29.70;52.20
13521;DHT22;6832;51.186;3.236;2023-06-19T00:44:13;29.70;52.30
13521;DHT22;6832;51.186;3.236;2023-06-19T00:46:40;29.60;52.20
13521;DHT22;6832;51.186;3.236;2023-06-19T00:49:07;29.60;52.20
13521;DHT22;6832;51.186;3.236;2023-06-19T00:51:35;29.60;52.20
13521;DHT22;6832;51.186;3.236;2023-06-19T00:54:02;29.60;52.20
13521;DHT22;6832;51.186;3.236;2023-06-19T00:56:29;29.60;52.20
13521;DHT22;6832;51.186;3.236;2023-06-19T00:58:57;29.50;52.20
13521;DHT22;6832;51.186;3.236;2023-06-19T01:01:25;29.60;52.30
13521;DHT22;6832;51.186;3.236;2023-06-19T01:03:53;29.50;52.20
13521;DHT22;6832;51.186;3.236;2023-06-19T01:06:22;29.50;52.20
13521;DHT22;6832;51.186;3.236;2023-06-19T01:08:55;29.50;52.30
13521;DHT22;6832;51.186;3.236;2023-06-19T01:11:25;29.50;52.30
13521;DHT22;6832;51.186;3.236;2023-06-19T01:13:58;29.40;52.20
13521;DHT22;6832;51.186;3.236;2023-06-19T01:16:25;29.40;52.30
13521;DHT22;6832;51.186;3.236;2023-06-19T01:18:53;29.40;52.30
13521;DHT22;6832;51.186;3.236;2023-06-19T01:21:20;29.40;52.30
13521;DHT22;6832;51.186;3.236;2023-06-19T01:23:48;29.40;52.30
13521;DHT22;6832;51.186;3.236;2023-06-19T01:26:16;29.40;52.30
13521;DHT22;6832;51.186;3.236;2023-06-19T01:28:44;29.40;52.30
13521;DHT22;6832;51.186;3.236;2023-06-19T01:31:15;29.30;52.20
13521;DHT22;6832;51.186;3.236;2023-06-19T01:33:45;29.30;52.20
13521;DHT22;6832;51.186;3.236;2023-06-19T01:36:14;29.30;52.30
13521;DHT22;6832;51.186;3.236;2023-06-19T01:38:43;29.30;52.30
13521;DHT22;6832;51.186;3.236;2023-06-19T01:41:12;29.30;52.40
13521;DHT22;6832;51.186;3.236;2023-06-19T01:43:40;29.30;52.30
13521;DHT22;6832;51.186;3.236;2023-06-19T01:46:07;29.20;52.30
13521;DHT22;6832;51.186;3.236;2023-06-19T01:48:35;29.20;52.30
13521;DHT22;6832;51.186;3.236;2023-06-19T01:51:02;29.20;52.30
13521;DHT22;6832;51.186;3.236;2023-06-19T01:53:30;29.10;52.30
13521;DHT22;6832;51.186;3.236;2023-06-19T01:55:57;29.10;52.20
13521;DHT22;6832;51.186;3.236;2023-06-19T01:58:26;29.10;52.30
13521;DHT22;6832;51.186;3.236;2023-06-19T02:00:53;29.10;52.30
13521;DHT22;6832;51.186;3.236;2023-06-19T02:03:20;29.10;52.20
13521;DHT22;6832;51.186;3.236;2023-06-19T02:05:46;29.10;52.20
13521;DHT22;6832;51.186;3.236;2023-06-19T02:08:13;29.10;52.20
13521;DHT22;6832;51.186;3.236;2023-06-19T02:10:40;29.00;52.30
13521;DHT22;6832;51.186;3.236;2023-06-19T02:13:07;29.00;52.20
13521;DHT22;6832;51.186;3.236;2023-06-19T02:15:36;29.00;52.20
13521;DHT22;6832;51.186;3.236;2023-06-19T02:18:04;29.00;52.10
13521;DHT22;6832;51.186;3.236;2023-06-19T02:20:31;29.00;52.10
13521;DHT22;6832;51.186;3.236;2023-06-19T02:22:58;28.90;52.00
13521;DHT22;6832;51.186;3.236;2023-06-19T02:25:24;28.90;52.00
13521;DHT22;6832;51.186;3.236;2023-06-19T02:27:51;28.90;52.60
13521;DHT22;6832;51.186;3.236;2023-06-19T02:30:18;28.80;51.90
13521;DHT22;6832;51.186;3.236;2023-06-19T02:32:46;28.80;51.90
13521;DHT22;6832;51.186;3.236;2023-06-19T02:35:14;28.80;51.90
13521;DHT22;6832;51.186;3.236;2023-06-19T02:37:41;28.80;51.90
13521;DHT22;6832;51.186;3.236;2023-06-19T02:40:08;28.70;51.80
13521;DHT22;6832;51.186;3.236;2023-06-19T02:42:36;28.70;51.80
13521;DHT22;6832;51.186;3.236;2023-06-19T02:45:03;28.70;52.40
13521;DHT22;6832;51.186;3.236;2023-06-19T02:47:30;28.70;51.80
13521;DHT22;6832;51.186;3.236;2023-06-19T02:49:59;28.70;51.80
13521;DHT22;6832;51.186;3.236;2023-06-19T02:52:26;28.60;51.80
13521;DHT22;6832;51.186;3.236;2023-06-19T02:54:53;28.60;51.80
13521;DHT22;6832;51.186;3.236;2023-06-19T02:57:20;28.50;51.70
13521;DHT22;6832;51.186;3.236;2023-06-19T02:59:47;28.50;51.80
13521;DHT22;6832;51.186;3.236;2023-06-19T03:02:15;28.50;51.80
13521;DHT22;6832;51.186;3.236;2023-06-19T03:04:42;28.50;51.80
13521;DHT22;6832;51.186;3.236;2023-06-19T03:07:11;28.50;51.80
13521;DHT22;6832;51.186;3.236;2023-06-19T03:09:39;28.40;51.70
13521;DHT22;6832;51.186;3.236;2023-06-19T03:12:07;28.40;52.40
13521;DHT22;6832;51.186;3.236;2023-06-19T03:14:34;28.40;51.70
13521;DHT22;6832;51.186;3.236;2023-06-19T03:17:01;28.40;51.80
13521;DHT22;6832;51.186;3.236;2023-06-19T03:19:27;28.40;51.80
13521;DHT22;6832;51.186;3.236;2023-06-19T03:21:54;28.30;51.70
13521;DHT22;6832;51.186;3.236;2023-06-19T03:24:23;28.30;51.80
13521;DHT22;6832;51.186;3.236;2023-06-19T03:26:51;28.30;51.80
13521;DHT22;6832;51.186;3.236;2023-06-19T03:29:18;28.30;51.80
13521;DHT22;6832;51.186;3.236;2023-06-19T03:31:45;28.30;51.80
13521;DHT22;6832;51.186;3.236;2023-06-19T03:34:12;28.30;51.80
13521;DHT22;6832;51.186;3.236;2023-06-19T03:36:39;28.20;51.80
13521;DHT22;6832;51.186;3.236;2023-06-19T03:39:05;28.30;51.80
13521;DHT22;6832;51.186;3.236;2023-06-19T03:41:35;28.20;51.70
13521;DHT22;6832;51.186;3.236;2023-06-19T03:44:02;28.20;52.30
13521;DHT22;6832;51.186;3.236;2023-06-19T03:46:29;28.10;51.70
13521;DHT22;6832;51.186;3.236;2023-06-19T03:48:56;28.10;51.70
13521;DHT22;6832;51.186;3.236;2023-06-19T03:51:23;28.10;51.90
13521;DHT22;6832;51.186;3.236;2023-06-19T03:53:49;28.10;51.70
13521;DHT22;6832;51.186;3.236;2023-06-19T03:56:16;28.10;51.70
13521;DHT22;6832;51.186;3.236;2023-06-19T03:58:45;28.10;51.70
13521;DHT22;6832;51.186;3.236;2023-06-19T04:01:11;28.00;51.70
13521;DHT22;6832;51.186;3.236;2023-06-19T04:03:38;28.00;51.70
13521;DHT22;6832;51.186;3.236;2023-06-19T04:06:05;28.00;51.70
13521;DHT22;6832;51.186;3.236;2023-06-19T04:08:33;28.00;51.70
13521;DHT22;6832;51.186;3.236;2023-06-19T04:11:00;28.00;51.70
13521;DHT22;6832;51.186;3.236;2023-06-19T04:13:27;28.00;51.70
13521;DHT22;6832;51.186;3.236;2023-06-19T04:15:55;27.90;51.70
13521;DHT22;6832;51.186;3.236;2023-06-19T04:18:22;27.90;51.70
13521;DHT22;6832;51.186;3.236;2023-06-19T04:20:48;27.90;51.70
13521;DHT22;6832;51.186;3.236;2023-06-19T04:23:15;27.90;51.70
13521;DHT22;6832;51.186;3.236;2023-06-19T04:25:42;27.90;51.70
13521;DHT22;6832;51.186;3.236;2023-06-19T04:28:09;27.90;51.70
13521;DHT22;6832;51.186;3.236;2023-06-19T04:30:36;27.80;51.70
13521;DHT22;6832;51.186;3.236;2023-06-19T04:33:06;27.80;51.70
13521;DHT22;6832;51.186;3.236;2023-06-19T04:35:34;27.90;51.70
13521;DHT22;6832;51.186;3.236;2023-06-19T04:38:05;27.80;51.70
13521;DHT22;6832;51.186;3.236;2023-06-19T04:40:32;27.80;51.70
13521;DHT22;6832;51.186;3.236;2023-06-19T04:42:59;27.80;51.80
13521;DHT22;6832;51.186;3.236;2023-06-19T04:45:26;27.80;51.80
13521;DHT22;6832;51.186;3.236;2023-06-19T04:47:53;27.80;51.80
13521;DHT22;6832;51.186;3.236;2023-06-19T04:50:21;27.70;51.70
13521;DHT22;6832;51.186;3.236;2023-06-19T04:52:48;27.70;51.80
13521;DHT22;6832;51.186;3.236;2023-06-19T04:55:16;27.70;51.80
13521;DHT22;6832;51.186;3.236;2023-06-19T04:57:43;27.70;51.80
13521;DHT22;6832;51.186;3.236;2023-06-19T05:00:10;27.70;51.70
13521;DHT22;6832;51.186;3.236;2023-06-19T05:02:38;27.60;51.70
13521;DHT22;6832;51.186;3.236;2023-06-19T05:05:09;27.60;51.70
13521;DHT22;6832;51.186;3.236;2023-06-19T05:07:37;27.70;51.80
13521;DHT22;6832;51.186;3.236;2023-06-19T05:10:05;27.60;51.70
13521;DHT22;6832;51.186;3.236;2023-06-19T05:12:32;27.70;51.80
13521;DHT22;6832;51.186;3.236;2023-06-19T05:14:58;27.60;51.80
13521;DHT22;6832;51.186;3.236;2023-06-19T05:17:25;27.60;51.80
13521;DHT22;6832;51.186;3.236;2023-06-19T05:19:52;27.60;51.80
13521;DHT22;6832;51.186;3.236;2023-06-19T05:22:19;27.60;51.80
13521;DHT22;6832;51.186;3.236;2023-06-19T05:24:48;27.60;51.80
13521;DHT22;6832;51.186;3.236;2023-06-19T05:27:15;27.60;51.80
13521;DHT22;6832;51.186;3.236;2023-06-19T05:29:42;27.60;51.90
13521;DHT22;6832;51.186;3.236;2023-06-19T05:32:09;27.60;51.80
13521;DHT22;6832;51.186;3.236;2023-06-19T05:34:35;27.50;51.80
13521;DHT22;6832;51.186;3.236;2023-06-19T05:37:02;27.50;51.80
13521;DHT22;6832;51.186;3.236;2023-06-19T05:39:29;27.50;51.80
13521;DHT22;6832;51.186;3.236;2023-06-19T05:42:00;27.60;51.90
13521;DHT22;6832;51.186;3.236;2023-06-19T05:44:27;27.50;51.80
13521;DHT22;6832;51.186;3.236;2023-06-19T05:46:54;27.50;51.80
13521;DHT22;6832;51.186;3.236;2023-06-19T05:49:21;27.60;51.90
13521;DHT22;6832;51.186;3.236;2023-06-19T05:51:48;27.50;51.90
13521;DHT22;6832;51.186;3.236;2023-06-19T05:54:15;27.50;51.80
13521;DHT22;6832;51.186;3.236;2023-06-19T05:56:43;27.60;51.90
13521;DHT22;6832;51.186;3.236;2023-06-19T05:59:11;27.50;51.90
13521;DHT22;6832;51.186;3.236;2023-06-19T06:01:40;27.60;51.90
13521;DHT22;6832;51.186;3.236;2023-06-19T06:04:06;27.50;51.90
13521;DHT22;6832;51.186;3.236;2023-06-19T06:06:33;27.60;52.00
13521;DHT22;6832;51.186;3.236;2023-06-19T06:09:00;27.50;51.90
13521;DHT22;6832;51.186;3.236;2023-06-19T06:11:27;27.50;51.90
13521;DHT22;6832;51.186;3.236;2023-06-19T06:13:54;27.50;51.90
13521;DHT22;6832;51.186;3.236;2023-06-19T06:16:22;27.50;51.90
13521;DHT22;6832;51.186;3.236;2023-06-19T06:18:49;27.60;52.00
13521;DHT22;6832;51.186;3.236;2023-06-19T06:21:16;27.60;51.90
13521;DHT22;6832;51.186;3.236;2023-06-19T06:23:42;27.60;52.00
13521;DHT22;6832;51.186;3.236;2023-06-19T06:26:10;27.60;52.00
13521;DHT22;6832;51.186;3.236;2023-06-19T06:28:37;27.60;52.00
13521;DHT22;6832;51.186;3.236;2023-06-19T06:31:05;27.60;52.00
13521;DHT22;6832;51.186;3.236;2023-06-19T06:33:33;27.60;52.00
13521;DHT22;6832;51.186;3.236;2023-06-19T06:36:01;27.60;52.00
13521;DHT22;6832;51.186;3.236;2023-06-19T06:38:28;27.60;52.00
13521;DHT22;6832;51.186;3.236;2023-06-19T06:40:55;27.60;52.00
13521;DHT22;6832;51.186;3.236;2023-06-19T06:43:22;27.70;52.10
13521;DHT22;6832;51.186;3.236;2023-06-19T06:45:49;27.60;52.00
13521;DHT22;6832;51.186;3.236;2023-06-19T06:48:15;27.60;52.00
13521;DHT22;6832;51.186;3.236;2023-06-19T06:50:44;27.60;52.00
13521;DHT22;6832;51.186;3.236;2023-06-19T06:53:11;27.70;52.10
13521;DHT22;6832;51.186;3.236;2023-06-19T06:55:37;27.70;52.10
13521;DHT22;6832;51.186;3.236;2023-06-19T06:58:04;27.70;52.10
13521;DHT22;6832;51.186;3.236;2023-06-19T07:00:31;27.70;52.10
13521;DHT22;6832;51.186;3.236;2023-06-19T07:02:58;27.70;52.10
13521;DHT22;6832;51.186;3.236;2023-06-19T07:05:25;27.70;52.10
13521;DHT22;6832;51.186;3.236;2023-06-19T07:07:55;27.70;52.10
13521;DHT22;6832;51.186;3.236;2023-06-19T07:10:22;27.80;52.20
13521;DHT22;6832;51.186;3.236;2023-06-19T07:12:49;27.80;52.20
13521;DHT22;6832;51.186;3.236;2023-06-19T07:15:17;27.80;52.20
13521;DHT22;6832;51.186;3.236;2023-06-19T07:17:44;27.80;52.20
13521;DHT22;6832;51.186;3.236;2023-06-19T07:20:11;27.80;52.20
13521;DHT22;6832;51.186;3.236;2023-06-19T07:22:38;27.80;52.20
13521;DHT22;6832;51.186;3.236;2023-06-19T07:25:09;27.80;52.20
13521;DHT22;6832;51.186;3.236;2023-06-19T07:27:36;27.80;52.20
13521;DHT22;6832;51.186;3.236;2023-06-19T07:30:05;27.80;52.20
13521;DHT22;6832;51.186;3.236;2023-06-19T07:32:32;27.90;52.20
13521;DHT22;6832;51.186;3.236;2023-06-19T07:34:59;27.90;52.30
13521;DHT22;6832;51.186;3.236;2023-06-19T07:37:26;27.90;52.30
13521;DHT22;6832;51.186;3.236;2023-06-19T07:39:53;27.90;52.30
13521;DHT22;6832;51.186;3.236;2023-06-19T07:42:21;27.90;52.30
13521;DHT22;6832;51.186;3.236;2023-06-19T07:44:48;28.00;52.40
13521;DHT22;6832;51.186;3.236;2023-06-19T07:47:15;28.00;52.40
13521;DHT22;6832;51.186;3.236;2023-06-19T07:49:43;28.00;52.40
13521;DHT22;6832;51.186;3.236;2023-06-19T07:52:10;28.00;52.30
13521;DHT22;6832;51.186;3.236;2023-06-19T07:54:48;28.00;52.40
13521;DHT22;6832;51.186;3.236;2023-06-19T07:57:15;28.10;52.50
13521;DHT22;6832;51.186;3.236;2023-06-19T07:59:43;28.10;52.40
13521;DHT22;6832;51.186;3.236;2023-06-19T08:02:10;28.10;52.30
13521;DHT22;6832;51.186;3.236;2023-06-19T08:04:37;28.00;52.30
13521;DHT22;6832;51.186;3.236;2023-06-19T08:07:04;28.10;52.30
13521;DHT22;6832;51.186;3.236;2023-06-19T08:09:31;28.20;52.30
13521;DHT22;6832;51.186;3.236;2023-06-19T08:11:58;28.20;52.30
13521;DHT22;6832;51.186;3.236;2023-06-19T08:14:25;28.20;52.30
13521;DHT22;6832;51.186;3.236;2023-06-19T08:16:54;28.20;52.30
13521;DHT22;6832;51.186;3.236;2023-06-19T08:19:21;28.20;52.30
13521;DHT22;6832;51.186;3.236;2023-06-19T08:21:48;28.30;52.30
13521;DHT22;6832;51.186;3.236;2023-06-19T08:24:14;28.30;52.30
13521;DHT22;6832;51.186;3.236;2023-06-19T08:26:41;28.30;52.30
13521;DHT22;6832;51.186;3.236;2023-06-19T08:29:08;28.30;52.30
13521;DHT22;6832;51.186;3.236;2023-06-19T08:31:35;28.30;52.30
13521;DHT22;6832;51.186;3.236;2023-06-19T08:34:03;28.40;52.40
13521;DHT22;6832;51.186;3.236;2023-06-19T08:36:33;28.40;52.40
13521;DHT22;6832;51.186;3.236;2023-06-19T08:39:00;28.40;52.40
13521;DHT22;6832;51.186;3.236;2023-06-19T08:41:27;28.40;52.40
13521;DHT22;6832;51.186;3.236;2023-06-19T08:43:54;28.40;52.40
13521;DHT22;6832;51.186;3.236;2023-06-19T08:46:21;28.40;52.30
13521;DHT22;6832;51.186;3.236;2023-06-19T08:48:48;28.50;52.40
13521;DHT22;6832;51.186;3.236;2023-06-19T08:51:16;28.50;52.40
13521;DHT22;6832;51.186;3.236;2023-06-19T08:53:47;28.50;52.30
13521;DHT22;6832;51.186;3.236;2023-06-19T08:56:16;28.50;52.30
13521;DHT22;6832;51.186;3.236;2023-06-19T08:58:43;28.60;52.40
13521;DHT22;6832;51.186;3.236;2023-06-19T09:01:10;28.60;52.40
13521;DHT22;6832;51.186;3.236;2023-06-19T09:03:38;28.60;52.40
13521;DHT22;6832;51.186;3.236;2023-06-19T09:06:07;28.60;53.00
13521;DHT22;6832;51.186;3.236;2023-06-19T09:08:35;28.70;52.50
13521;DHT22;6832;51.186;3.236;2023-06-19T09:11:04;28.70;52.40
13521;DHT22;6832;51.186;3.236;2023-06-19T09:13:32;28.70;52.40
13521;DHT22;6832;51.186;3.236;2023-06-19T09:16:00;28.70;52.40
13521;DHT22;6832;51.186;3.236;2023-06-19T09:18:29;28.80;52.40
13521;DHT22;6832;51.186;3.236;2023-06-19T09:20:57;28.80;52.40
13521;DHT22;6832;51.186;3.236;2023-06-19T09:23:24;28.80;52.40
13521;DHT22;6832;51.186;3.236;2023-06-19T09:25:53;28.80;52.40
13521;DHT22;6832;51.186;3.236;2023-06-19T09:28:23;28.90;52.40
13521;DHT22;6832;51.186;3.236;2023-06-19T09:30:54;28.90;52.40
13521;DHT22;6832;51.186;3.236;2023-06-19T09:33:21;29.00;52.50
13521;DHT22;6832;51.186;3.236;2023-06-19T09:35:49;29.00;52.40
13521;DHT22;6832;51.186;3.236;2023-06-19T09:38:17;29.00;52.30
13521;DHT22;6832;51.186;3.236;2023-06-19T09:40:45;29.00;52.30
13521;DHT22;6832;51.186;3.236;2023-06-19T09:43:18;29.00;52.40
13521;DHT22;6832;51.186;3.236;2023-06-19T09:45:48;29.00;52.20
13521;DHT22;6832;51.186;3.236;2023-06-19T09:48:19;29.00;52.20
13521;DHT22;6832;51.186;3.236;2023-06-19T09:50:50;29.10;52.20
13521;DHT22;6832;51.186;3.236;2023-06-19T09:53:18;29.10;52.20
13521;DHT22;6832;51.186;3.236;2023-06-19T09:55:46;29.10;52.20
13521;DHT22;6832;51.186;3.236;2023-06-19T09:58:17;29.20;52.30
13521;DHT22;6832;51.186;3.236;2023-06-19T10:00:45;29.10;52.20
13521;DHT22;6832;51.186;3.236;2023-06-19T10:03:13;29.20;52.10
13521;DHT22;6832;51.186;3.236;2023-06-19T10:05:42;29.20;52.10
13521;DHT22;6832;51.186;3.236;2023-06-19T10:08:09;29.20;52.10
13521;DHT22;6832;51.186;3.236;2023-06-19T10:10:37;29.20;52.10
13521;DHT22;6832;51.186;3.236;2023-06-19T10:13:13;29.20;52.00
13521;DHT22;6832;51.186;3.236;2023-06-19T10:15:43;29.30;52.00
13521;DHT22;6832;51.186;3.236;2023-06-19T10:18:14;29.30;52.00
13521;DHT22;6832;51.186;3.236;2023-06-19T10:20:43;29.30;52.10
13521;DHT22;6832;51.186;3.236;2023-06-19T10:23:12;29.30;52.10
13521;DHT22;6832;51.186;3.236;2023-06-19T10:25:43;29.30;52.00
13521;DHT22;6832;51.186;3.236;2023-06-19T10:28:16;29.40;52.10
13521;DHT22;6832;51.186;3.236;2023-06-19T10:30:51;29.40;52.00
13521;DHT22;6832;51.186;3.236;2023-06-19T10:33:18;29.40;52.00
13521;DHT22;6832;51.186;3.236;2023-06-19T10:35:45;29.40;52.00
13521;DHT22;6832;51.186;3.236;2023-06-19T10:38:14;29.50;52.00
13521;DHT22;6832;51.186;3.236;2023-06-19T10:40:41;29.60;52.00
13521;DHT22;6832;51.186;3.236;2023-06-19T10:43:08;29.60;52.00
13521;DHT22;6832;51.186;3.236;2023-06-19T10:45:35;29.60;52.00
13521;DHT22;6832;51.186;3.236;2023-06-19T10:48:04;29.60;51.90
13521;DHT22;6832;51.186;3.236;2023-06-19T10:50:34;29.70;52.50
13521;DHT22;6832;51.186;3.236;2023-06-19T10:53:02;29.70;51.80
13521;DHT22;6832;51.186;3.236;2023-06-19T10:55:29;29.80;51.90
13521;DHT22;6832;51.186;3.236;2023-06-19T10:57:56;29.80;51.80
13521;DHT22;6832;51.186;3.236;2023-06-19T11:00:24;29.90;51.90
13521;DHT22;6832;51.186;3.236;2023-06-19T11:02:51;30.00;51.70
13521;DHT22;6832;51.186;3.236;2023-06-19T11:05:21;30.00;51.70
13521;DHT22;6832;51.186;3.236;2023-06-19T11:07:52;30.10;51.70
13521;DHT22;6832;51.186;3.236;2023-06-19T11:10:21;30.30;51.80
13521;DHT22;6832;51.186;3.236;2023-06-19T11:12:48;30.40;51.90
13521;DHT22;6832;51.186;3.236;2023-06-19T11:15:15;30.50;51.80
13521;DHT22;6832;51.186;3.236;2023-06-19T11:17:42;30.70;52.00
13521;DHT22;6832;51.186;3.236;2023-06-19T11:20:11;30.80;51.80
13521;DHT22;6832;51.186;3.236;2023-06-19T11:22:41;31.00;51.60
13521;DHT22;6832;51.186;3.236;2023-06-19T11:25:09;31.20;51.70
13521;DHT22;6832;51.186;3.236;2023-06-19T11:27:38;31.30;51.50
13521;DHT22;6832;51.186;3.236;2023-06-19T11:30:07;31.50;51.40
13521;DHT22;6832;51.186;3.236;2023-06-19T11:32:36;31.60;51.20
13521;DHT22;6832;51.186;3.236;2023-06-19T11:35:08;31.80;51.20
13521;DHT22;6832;51.186;3.236;2023-06-19T11:37:36;31.90;51.00
13521;DHT22;6832;51.186;3.236;2023-06-19T11:40:05;32.00;50.70
13521;DHT22;6832;51.186;3.236;2023-06-19T11:42:47;32.10;50.50
13521;DHT22;6832;51.186;3.236;2023-06-19T11:45:14;32.20;50.50
13521;DHT22;6832;51.186;3.236;2023-06-19T11:47:43;32.30;50.50
13521;DHT22;6832;51.186;3.236;2023-06-19T11:50:11;32.40;50.50
13521;DHT22;6832;51.186;3.236;2023-06-19T11:52:38;32.50;50.70
13521;DHT22;6832;51.186;3.236;2023-06-19T11:55:07;32.60;50.50
13521;DHT22;6832;51.186;3.236;2023-06-19T11:57:34;32.70;50.30
13521;DHT22;6832;51.186;3.236;2023-06-19T12:00:02;32.70;50.20
13521;DHT22;6832;51.186;3.236;2023-06-19T12:02:32;32.90;50.40
13521;DHT22;6832;51.186;3.236;2023-06-19T12:04:59;33.00;50.10
13521;DHT22;6832;51.186;3.236;2023-06-19T12:07:26;33.10;50.20
13521;DHT22;6832;51.186;3.236;2023-06-19T12:09:53;33.20;50.10
13521;DHT22;6832;51.186;3.236;2023-06-19T12:12:21;33.30;49.80
13521;DHT22;6832;51.186;3.236;2023-06-19T12:14:48;33.40;49.50
13521;DHT22;6832;51.186;3.236;2023-06-19T12:17:14;33.50;49.40
13521;DHT22;6832;51.186;3.236;2023-06-19T12:19:41;33.50;49.50
13521;DHT22;6832;51.186;3.236;2023-06-19T12:22:08;33.60;49.40
13521;DHT22;6832;51.186;3.236;2023-06-19T12:24:35;33.70;49.40
13521;DHT22;6832;51.186;3.236;2023-06-19T12:27:02;33.70;49.10
13521;DHT22;6832;51.186;3.236;2023-06-19T12:29:30;33.80;49.20
13521;DHT22;6832;51.186;3.236;2023-06-19T12:32:00;33.80;48.90
13521;DHT22;6832;51.186;3.236;2023-06-19T12:34:28;33.90;48.70
13521;DHT22;6832;51.186;3.236;2023-06-19T12:36:55;33.90;48.90
13521;DHT22;6832;51.186;3.236;2023-06-19T12:39:22;33.90;48.70
13521;DHT22;6832;51.186;3.236;2023-06-19T12:41:50;33.90;49.30
13521;DHT22;6832;51.186;3.236;2023-06-19T12:44:17;33.90;48.60
13521;DHT22;6832;51.186;3.236;2023-06-19T12:46:46;34.00;48.60
13521;DHT22;6832;51.186;3.236;2023-06-19T12:49:12;34.00;48.60
13521;DHT22;6832;51.186;3.236;2023-06-19T12:51:39;34.00;48.40
13521;DHT22;6832;51.186;3.236;2023-06-19T12:54:06;34.00;48.40
13521;DHT22;6832;51.186;3.236;2023-06-19T12:56:33;34.10;48.80
13521;DHT22;6832;51.186;3.236;2023-06-19T12:59:00;34.10;48.50
13521;DHT22;6832;51.186;3.236;2023-06-19T13:01:27;34.10;48.30
13521;DHT22;6832;51.186;3.236;2023-06-19T13:03:55;34.10;48.10
13521;DHT22;6832;51.186;3.236;2023-06-19T13:06:22;34.20;47.90
13521;DHT22;6832;51.186;3.236;2023-06-19T13:08:49;34.20;47.70
13521;DHT22;6832;51.186;3.236;2023-06-19T13:11:16;34.20;47.70
13521;DHT22;6832;51.186;3.236;2023-06-19T13:13:43;34.20;47.60
13521;DHT22;6832;51.186;3.236;2023-06-19T13:16:09;34.20;47.50
13521;DHT22;6832;51.186;3.236;2023-06-19T13:18:36;34.30;47.50
13521;DHT22;6832;51.186;3.236;2023-06-19T13:21:04;34.20;47.50
13521;DHT22;6832;51.186;3.236;2023-06-19T13:23:31;34.20;47.30
13521;DHT22;6832;51.186;3.236;2023-06-19T13:25:58;34.10;47.40
13521;DHT22;6832;51.186;3.236;2023-06-19T13:28:25;34.10;47.30
13521;DHT22;6832;51.186;3.236;2023-06-19T13:30:52;34.10;47.40
13521;DHT22;6832;51.186;3.236;2023-06-19T13:33:19;34.00;47.20
13521;DHT22;6832;51.186;3.236;2023-06-19T13:35:45;34.00;47.00
13521;DHT22;6832;51.186;3.236;2023-06-19T13:38:14;33.90;46.90
13521;DHT22;6832;51.186;3.236;2023-06-19T13:40:41;33.80;46.90
13521;DHT22;6832;51.186;3.236;2023-06-19T13:43:08;33.70;47.10
13521;DHT22;6832;51.186;3.236;2023-06-19T13:45:35;33.70;47.20
13521;DHT22;6832;51.186;3.236;2023-06-19T13:48:04;33.60;47.20
13521;DHT22;6832;51.186;3.236;2023-06-19T13:50:31;33.50;47.20
13521;DHT22;6832;51.186;3.236;2023-06-19T13:52:58;33.40;47.20
13521;DHT22;6832;51.186;3.236;2023-06-19T13:55:27;33.30;47.20
13521;DHT22;6832;51.186;3.236;2023-06-19T13:57:54;33.30;47.20
13521;DHT22;6832;51.186;3.236;2023-06-19T14:00:21;33.20;47.30
13521;DHT22;6832;51.186;3.236;2023-06-19T14:02:48;33.10;47.40
13521;DHT22;6832;51.186;3.236;2023-06-19T14:05:16;33.10;47.30
13521;DHT22;6832;51.186;3.236;2023-06-19T14:07:42;33.00;47.30
13521;DHT22;6832;51.186;3.236;2023-06-19T14:10:09;33.00;47.50
13521;DHT22;6832;51.186;3.236;2023-06-19T14:12:38;32.90;47.50
13521;DHT22;6832;51.186;3.236;2023-06-19T14:15:07;32.80;47.40
13521;DHT22;6832;51.186;3.236;2023-06-19T14:17:34;32.70;47.40
13521;DHT22;6832;51.186;3.236;2023-06-19T14:20:02;32.70;47.50
13521;DHT22;6832;51.186;3.236;2023-06-19T14:22:30;32.70;47.60
13521;DHT22;6832;51.186;3.236;2023-06-19T14:24:57;32.60;47.60
13521;DHT22;6832;51.186;3.236;2023-06-19T14:27:25;32.50;47.80
13521;DHT22;6832;51.186;3.236;2023-06-19T14:29:54;32.50;47.70
13521;DHT22;6832;51.186;3.236;2023-06-19T14:32:21;32.50;47.70
13521;DHT22;6832;51.186;3.236;2023-06-19T14:34:48;32.40;47.80
13521;DHT22;6832;51.186;3.236;2023-06-19T14:37:15;32.40;47.80
13521;DHT22;6832;51.186;3.236;2023-06-19T14:39:42;32.30;47.90
13521;DHT22;6832;51.186;3.236;2023-06-19T14:42:09;32.30;47.90
13521;DHT22;6832;51.186;3.236;2023-06-19T14:44:36;32.20;47.90
13521;DHT22;6832;51.186;3.236;2023-06-19T14:47:05;32.20;48.00
13521;DHT22;6832;51.186;3.236;2023-06-19T14:49:32;32.10;48.00
13521;DHT22;6832;51.186;3.236;2023-06-19T14:51:59;32.10;48.10
13521;DHT22;6832;51.186;3.236;2023-06-19T14:54:26;32.10;48.10
13521;DHT22;6832;51.186;3.236;2023-06-19T14:56:53;32.00;48.10
13521;DHT22;6832;51.186;3.236;2023-06-19T14:59:19;32.00;48.10
13521;DHT22;6832;51.186;3.236;2023-06-19T15:01:46;31.90;48.10
13521;DHT22;6832;51.186;3.236;2023-06-19T15:04:14;31.90;48.20
13521;DHT22;6832;51.186;3.236;2023-06-19T15:06:41;31.80;48.20
13521;DHT22;6832;51.186;3.236;2023-06-19T15:09:08;31.80;48.30
13521;DHT22;6832;51.186;3.236;2023-06-19T15:11:36;31.80;48.30
13521;DHT22;6832;51.186;3.236;2023-06-19T15:14:02;31.80;48.40
13521;DHT22;6832;51.186;3.236;2023-06-19T15:16:29;31.70;48.30
13521;DHT22;6832;51.186;3.236;2023-06-19T15:18:56;31.70;48.40
13521;DHT22;6832;51.186;3.236;2023-06-19T15:21:27;31.70;48.50
13521;DHT22;6832;51.186;3.236;2023-06-19T15:23:54;31.70;48.50
13521;DHT22;6832;51.186;3.236;2023-06-19T15:26:22;31.70;48.60
13521;DHT22;6832;51.186;3.236;2023-06-19T15:28:49;31.70;48.60
13521;DHT22;6832;51.186;3.236;2023-06-19T15:31:20;31.60;48.60
13521;DHT22;6832;51.186;3.236;2023-06-19T15:33:47;31.60;48.60
13521;DHT22;6832;51.186;3.236;2023-06-19T15:36:14;31.60;48.60
13521;DHT22;6832;51.186;3.236;2023-06-19T15:38:42;31.50;48.60
13521;DHT22;6832;51.186;3.236;2023-06-19T15:41:09;31.60;48.60
13521;DHT22;6832;51.186;3.236;2023-06-19T15:43:36;31.50;48.60
13521;DHT22;6832;51.186;3.236;2023-06-19T15:46:03;31.50;48.60
13521;DHT22;6832;51.186;3.236;2023-06-19T15:48:31;31.50;48.70